Kuujjuarapik, Canada
Current Conditions -  °F | °C
As of 10:00 AM on Thursday 18 Dec 2014 (Local Time) from CYGW Reporting Station
Clear Clear  
Wind Chill: -12°   Ceiling: Unl
Heat Index:   Visibility: 9mi
Dew Point: -4°   Wind: 8mph
Humidity: 78%   Direction: 140°SE
Pressure: 30.16"   Gusts: NA
Location:  55.26°N, 77.78°W
Report Text: CYGW 181500Z AUTO 14007KT 9SM CLR M17/M20 A3016 RMK SLP215
Loading
Personal Weather Stations






























Interactive Weather Map New forecast layout! Learn more

10-Day Weather Forecast

Advertisements
Track Severe Weather on mobile